TimeMDT,TemperatureF,Dew PointF,Humidity,Sea Level PressureIn,VisibilityMPH,Wind Direction,Wind SpeedMPH,Gust SpeedMPH,PrecipitationIn,Events,Conditions,WindDirDegrees,DateUTC
12:05 AM,39.2,35.6,87,30.13,10.0,NNE,10.4,-,0.00,Rain,Light Rain,30,2013-10-21 06:05:00
12:35 AM,39.2,35.6,87,30.14,10.0,North,9.2,-,0.01,Rain,Light Rain,350,2013-10-21 06:35:00
12:53 AM,39.0,36.0,89,29.99,10.0,North,6.9,-,0.01,Rain,Light Rain,10,2013-10-21 06:53:00
1:53 AM,39.0,35.1,86,30.00,10.0,North,3.5,-,0.01,,Overcast,350,2013-10-21 07:53:00
2:14 AM,39.2,35.6,87,30.15,10.0,NNW,3.5,-,N/A,,Overcast,340,2013-10-21 08:14:00
2:39 AM,39.2,35.6,87,30.16,10.0,NNE,5.8,-,N/A,,Overcast,20,2013-10-21 08:39:00
2:53 AM,39.0,35.1,86,30.01,10.0,NNE,3.5,-,N/A,,Overcast,20,2013-10-21 08:53:00
3:02 AM,39.2,33.8,81,30.16,10.0,Calm,Calm,-,N/A,,Overcast,0,2013-10-21 09:02:00
3:50 AM,39.2,33.8,81,30.16,10.0,Calm,Calm,-,N/A,,Overcast,0,2013-10-21 09:50:00
3:53 AM,39.0,34.0,82,30.02,10.0,Calm,Calm,-,N/A,,Overcast,0,2013-10-21 09:53:00
4:35 AM,39.2,33.8,81,30.16,10.0,North,5.8,-,N/A,,Overcast,350,2013-10-21 10:35:00
4:53 AM,37.9,34.0,86,30.04,10.0,North,5.8,-,N/A,,Overcast,350,2013-10-21 10:53:00
5:53 AM,37.9,34.0,86,30.08,10.0,NNW,6.9,-,N/A,,Overcast,330,2013-10-21 11:53:00
6:53 AM,34.0,30.9,89,30.12,10.0,NNW,9.2,-,N/A,,Clear,340,2013-10-21 12:53:00
7:53 AM,36.0,32.0,86,30.14,10.0,NNW,8.1,-,N/A,,Clear,340,2013-10-21 13:53:00
8:53 AM,41.0,33.1,73,30.15,10.0,Calm,Calm,-,N/A,,Clear,0,2013-10-21 14:53:00
9:53 AM,43.0,34.0,71,30.16,10.0,East,4.6,-,N/A,,Clear,100,2013-10-21 15:53:00
10:53 AM,46.9,30.9,54,30.14,10.0,Variable,3.5,-,N/A,,Clear,0,2013-10-21 16:53:00
11:53 AM,48.0,30.9,52,30.13,10.0,Calm,Calm,-,N/A,,Clear,0,2013-10-21 17:53:00
12:53 PM,52.0,30.9,45,30.10,10.0,SE,5.8,-,N/A,,Clear,140,2013-10-21 18:53:00
1:53 PM,54.0,30.9,41,30.06,10.0,Variable,3.5,-,N/A,,Partly Cloudy,0,2013-10-21 19:53:00
2:53 PM,55.0,28.9,37,30.04,10.0,SSE,5.8,-,N/A,,Clear,160,2013-10-21 20:53:00
3:53 PM,55.9,27.0,33,30.03,10.0,South,6.9,-,N/A,,Clear,190,2013-10-21 21:53:00
4:53 PM,55.9,27.0,33,30.04,10.0,SSW,8.1,-,N/A,,Clear,200,2013-10-21 22:53:00
5:53 PM,52.0,28.0,40,30.07,10.0,SSW,6.9,-,N/A,,Clear,200,2013-10-21 23:53:00
6:53 PM,46.9,28.9,50,30.12,10.0,WSW,4.6,-,N/A,,Clear,240,2013-10-22 00:53:00
7:53 PM,42.1,30.0,62,30.15,10.0,West,3.5,-,N/A,,Clear,270,2013-10-22 01:53:00
8:53 PM,43.0,28.9,58,30.14,10.0,West,5.8,-,N/A,,Clear,260,2013-10-22 02:53:00
9:53 PM,41.0,30.9,67,30.14,10.0,Calm,Calm,-,N/A,,Clear,0,2013-10-22 03:53:00
10:53 PM,39.9,30.9,70,30.14,10.0,Calm,Calm,-,N/A,,Clear,0,2013-10-22 04:53:00
11:53 PM,36.0,30.9,82,30.15,10.0,North,6.9,-,N/A,,Clear,350,2013-10-22 05:53:00